CYNR

SPECI CYNR 190936Z AUTO 00000KT 9SM M01/M02 A2982 RMK AO2 SLP117
SPECI
LOCATION
CYNR
DATE - TIME
190936Z
WIND
CALM WIND
VISIBILITY
9SM
RUNWAY VISUAL RANGE
NOT REPORTED
WEATHER
CLOUDINESS
TEMP / DEWPOINT
-1 ºC / -2 ºC
ALTIMETER
29.82 in. Hg
RECENT WEATHER
NOT REPORTED
WIND SHEAR
NOT REPORTED
REMARKS
RMK AO2 SLP117
SEA LEVEL PRESSURE: hPa

CYNR

SPECI CYNR 190933Z AUTO 00000KT 9SM BKN009 M01/M02 A2983 RMK AO2 SLP117
SPECI
LOCATION
CYNR
DATE - TIME
190933Z
WIND
CALM WIND
VISIBILITY
9SM
RUNWAY VISUAL RANGE
NOT REPORTED
WEATHER
CLOUDINESS
BKN009
TEMP / DEWPOINT
-1 ºC / -2 ºC
ALTIMETER
29.83 in. Hg
RECENT WEATHER
NOT REPORTED
WIND SHEAR
NOT REPORTED
REMARKS
RMK AO2 SLP117
SEA LEVEL PRESSURE: hPa

CYNR

SPECI CYNR 190932Z AUTO 00000KT 9SM BKN010 M01/M02 A2983 RMK AO2 SLP117
SPECI
LOCATION
CYNR
DATE - TIME
190932Z
WIND
CALM WIND
VISIBILITY
9SM
RUNWAY VISUAL RANGE
NOT REPORTED
WEATHER
CLOUDINESS
BKN010
TEMP / DEWPOINT
-1 ºC / -2 ºC
ALTIMETER
29.83 in. Hg
RECENT WEATHER
NOT REPORTED
WIND SHEAR
NOT REPORTED
REMARKS
RMK AO2 SLP117
SEA LEVEL PRESSURE: hPa

Your time UTC time
 
 
Weather data provided by AXYS Technologies Inc., www.axystechnologies.com
 
Station History